Inez Cenac — WDI2520 — position and weather

sailwx.info

Track history (hours):
 
Tides and Currents Weather Stations Pressure Air Temp Water Temp Dewpoint Dewpoint Depression Visibility Wind Speed Wind Dir Waves Ship Positions

Inez Cenac

Owner: Cenac Marine Services, Houma, LA. More information available from US FCC via Universal Licensing System and Coast Guard Vessel Documentation Center.

Last reported at 2018-Jun-24 21:50 UTC. Time now 2018-Jun-25 14:17 UTC.
Position N 29°51' W 091°57'.

Length 22 m; draft 2.4 m.

Type: Tug. MMSI: 367679030.

Date/timePositionNaut miles runAvg speedWind from/ knotsBaromVisibWave heightAir tempDewpointWater temp
2018-Jun-24 21:50N 29°51' W 091°57'2 4.9
2018-Jun-24 21:30N 29°50' W 091°58'2 4.8
2018-Jun-24 21:00N 29°49' W 092°01'2 4.7
2018-Jun-24 20:30N 29°49' W 092°04'2 4.8
2018-Jun-24 20:00N 29°48' W 092°06'3 5.0
2018-Jun-24 19:30N 29°47' W 092°09'2 4.2
2018-Jun-24 19:00N 29°47' W 092°11'1 2.1
2018-Jun-24 18:30N 29°47' W 092°12'0 0.5
2018-Jun-24 18:00N 29°47' W 092°13'1 1.5
2018-Jun-24 17:30N 29°48' W 092°13'1 1.1
2018-Jun-24 17:00N 29°48' W 092°14'1 1.5
2018-Jun-24 16:30N 29°48' W 092°15'0 0.6
2018-Jun-24 16:00N 29°48' W 092°15'0 0.2
2018-Jun-24 15:30N 29°48' W 092°15'0 0.0
2018-Jun-24 14:59N 29°48' W 092°15'0 0.0
2018-Jun-24 14:30N 29°48' W 092°15'0 0.0
2018-Jun-24 13:59N 29°48' W 092°15'0 0.0
2018-Jun-24 13:30N 29°48' W 092°15'0 0.9
2018-Jun-24 13:00N 29°48' W 092°16'1 1.5
2018-Jun-24 12:30N 29°49' W 092°16'0 0.9
2018-Jun-24 12:00N 29°49' W 092°17'1 3.0
2018-Jun-24 11:30N 29°50' W 092°18'2 3.7
2018-Jun-24 11:00N 29°51' W 092°20'3 4.2
2018-Jun-24 10:22N 29°52' W 092°22'28 4.5
2018-Jun-24 04:09N 29°56' W 092°55'1 4.2
2018-Jun-24 03:51N 29°56' W 092°56'5 4.2
2018-Jun-24 02:45N 29°56' W 093°01'1 4.4
2018-Jun-24 02:29N 29°56' W 093°03'2 3.8
2018-Jun-24 01:59N 29°56' W 093°05'2 3.8
2018-Jun-24 01:30N 29°56' W 093°07'1 2.4
2018-Jun-24 01:00N 29°56' W 093°08'2 3.2
2018-Jun-24 00:30N 29°57' W 093°10'1 2.3
2018-Jun-24 00:00N 29°58' W 093°11'1 2.6
2018-Jun-23 23:30N 29°59' W 093°12'2 3.1
2018-Jun-23 23:00N 29°60' W 093°13'2 3.6
2018-Jun-23 22:30N 30°01' W 093°14'2 3.4
2018-Jun-23 22:00N 30°02' W 093°15'2 3.3
2018-Jun-23 21:30N 30°04' W 093°16'2 3.6
2018-Jun-23 21:00N 30°05' W 093°17'0 0.8
2018-Jun-23 20:30N 30°05' W 093°18'0 0.9
2018-Jun-23 20:00N 30°06' W 093°18'0 0.7
2018-Jun-23 19:30N 30°06' W 093°18'0 0.0
2018-Jun-23 19:00N 30°06' W 093°18'0 0.0
2018-Jun-23 18:30N 30°06' W 093°18'0 0.0
2018-Jun-23 18:00N 30°06' W 093°18'0 0.0
2018-Jun-23 17:30N 30°06' W 093°18'0 0.0
2018-Jun-23 17:00N 30°06' W 093°18'0 0.0
2018-Jun-23 16:30N 30°06' W 093°18'0 0.1
2018-Jun-23 16:00N 30°06' W 093°18'0 0.1
2018-Jun-23 15:30N 30°06' W 093°18'0 0.0
2018-Jun-23 15:00N 30°06' W 093°18'0 0.1
2018-Jun-23 14:30N 30°06' W 093°18'0 0.0
2018-Jun-23 14:00N 30°06' W 093°18'0 0.0
2018-Jun-23 13:30N 30°06' W 093°18'0 0.0
2018-Jun-23 13:00N 30°06' W 093°18'0 0.0
2018-Jun-23 12:30N 30°06' W 093°18'0 0.1
2018-Jun-23 12:00N 30°06' W 093°18'0 0.0
2018-Jun-23 11:30N 30°06' W 093°18'0 0.0
2018-Jun-23 11:00N 30°06' W 093°18'0 0.1
2018-Jun-23 10:30N 30°06' W 093°18'0 0.0
2018-Jun-23 10:00N 30°06' W 093°18'0 0.0
2018-Jun-23 09:30N 30°06' W 093°18'0 0.0
2018-Jun-23 09:00N 30°06' W 093°18'0 0.0
2018-Jun-23 08:30N 30°06' W 093°18'0 0.0
2018-Jun-23 08:00N 30°06' W 093°18'0 0.0
2018-Jun-23 07:30N 30°06' W 093°18'0 0.1
2018-Jun-23 07:00N 30°06' W 093°18'0 0.0
2018-Jun-23 06:30N 30°06' W 093°18'0 0.0
2018-Jun-23 06:00N 30°06' W 093°18'0 0.0
2018-Jun-23 05:30N 30°06' W 093°18'0 0.0
2018-Jun-23 05:00N 30°06' W 093°18'0 0.0
2018-Jun-23 04:30N 30°06' W 093°18'0 0.1
2018-Jun-23 04:00N 30°06' W 093°18'0 0.3
2018-Jun-23 03:30N 30°06' W 093°18'1 2.1
2018-Jun-23 03:00N 30°06' W 093°19'2 3.2
2018-Jun-23 02:30N 30°04' W 093°21'2 3.6
2018-Jun-23 02:00N 30°04' W 093°23'1 2.9
2018-Jun-23 01:30N 30°04' W 093°24'1 2.3
2018-Jun-23 01:00N 30°04' W 093°25'2 3.7
2018-Jun-23 00:30N 30°04' W 093°28'3 5.5
2018-Jun-23 00:00N 30°04' W 093°31'3 5.5
2018-Jun-22 23:29N 30°04' W 093°34'3 5.5
2018-Jun-22 22:59N 30°04' W 093°37'3 5.8
2018-Jun-22 22:30N 30°04' W 093°41'3 5.2
2018-Jun-22 22:00N 30°03' W 093°44'3 5.9
2018-Jun-22 21:30N 30°01' W 093°46'3 5.9
2018-Jun-22 21:00N 29°59' W 093°48'3 5.3
2018-Jun-22 20:30N 29°58' W 093°51'3 5.1
2018-Jun-22 20:00N 29°59' W 093°54'3 6.0
2018-Jun-22 19:30N 30°00' W 093°57'2 3.3
2018-Jun-22 19:00N 30°01' W 093°59'0 0.0
2018-Jun-22 18:30N 30°01' W 093°59'0 0.0
2018-Jun-22 18:00N 30°01' W 093°59'0 0.0
2018-Jun-22 17:30N 30°01' W 093°59'0 0.0
2018-Jun-22 16:57N 30°01' W 093°59'0 0.0
2018-Jun-22 16:30N 30°01' W 093°59'0 0.4
2018-Jun-22 16:00N 30°01' W 093°59'0 0.6
2018-Jun-22 15:30N 30°01' W 093°59'0 0.0
2018-Jun-22 15:00N 30°01' W 093°59'0 0.0
2018-Jun-22 14:30N 30°01' W 093°59'0 0.0
2018-Jun-22 14:00N 30°01' W 093°59'0 0.0
2018-Jun-22 13:30N 30°01' W 093°59'0 0.0
2018-Jun-22 13:00N 30°01' W 093°59'0 0.0
2018-Jun-22 12:30N 30°01' W 093°59'0 0.0
2018-Jun-22 12:00N 30°01' W 093°59'0 0.0
2018-Jun-22 11:30N 30°01' W 093°59'0 0.0
2018-Jun-22 11:00N 30°01' W 093°59'0 0.0
2018-Jun-22 10:30N 30°01' W 093°59'0 0.0
2018-Jun-22 10:00N 30°01' W 093°59'0 0.0
2018-Jun-22 09:30N 30°01' W 093°59'0 0.0
2018-Jun-22 09:00N 30°01' W 093°59'0 0.0
2018-Jun-22 08:30N 30°01' W 093°59'0 0.0
2018-Jun-22 08:00N 30°01' W 093°59'0 0.0
2018-Jun-22 07:30N 30°01' W 093°59'0 0.0
2018-Jun-22 07:00N 30°01' W 093°59'0 0.0
2018-Jun-22 06:30N 30°01' W 093°59'0 0.0
2018-Jun-22 06:00N 30°01' W 093°59'0 0.0
2018-Jun-22 05:30N 30°01' W 093°59'0 0.0
2018-Jun-22 05:00N 30°01' W 093°59'0 0.0
2018-Jun-22 04:30N 30°01' W 093°59'0 0.0
2018-Jun-22 04:00N 30°01' W 093°59'0 0.0
2018-Jun-22 03:30N 30°01' W 093°59'0 0.0
2018-Jun-22 03:00N 30°01' W 093°59'0 0.0
2018-Jun-22 02:30N 30°01' W 093°59'0 0.0
2018-Jun-22 02:00N 30°01' W 093°59'0 0.0
2018-Jun-22 01:30N 30°01' W 093°59'0 0.0
2018-Jun-22 01:00N 30°01' W 093°59'0 0.0
2018-Jun-22 00:30N 30°01' W 093°59'0 0.0
2018-Jun-22 00:00N 30°01' W 093°59'0 0.0
2018-Jun-21 23:30N 30°01' W 093°59'0 0.0
2018-Jun-21 23:00N 30°01' W 093°59'0 0.0
2018-Jun-21 22:30N 30°01' W 093°59'0 0.0
2018-Jun-21 22:00N 30°01' W 093°59'0 0.0
2018-Jun-21 21:30N 30°01' W 093°59'0 0.0
2018-Jun-21 21:00N 30°01' W 093°59'0 0.0
2018-Jun-21 20:30N 30°01' W 093°59'0 0.0
2018-Jun-21 20:00N 30°01' W 093°59'0 0.0
2018-Jun-21 19:30N 30°01' W 093°59'0 0.0
2018-Jun-21 19:00N 30°01' W 093°59'0 0.1
2018-Jun-21 18:30N 30°01' W 093°59'0 0.3
2018-Jun-21 18:00N 30°01' W 093°59'2 4.0
2018-Jun-21 17:30N 29°60' W 093°57'4 8.4
2018-Jun-21 17:00N 29°59' W 093°52'3 6.2
2018-Jun-21 16:30N 29°59' W 093°49'4 8.3
2018-Jun-21 16:00N 30°01' W 093°45'3 6.7
2018-Jun-21 15:30N 30°04' W 093°42'4 7.1
2018-Jun-21 15:00N 30°04' W 093°38'3 6.4
2018-Jun-21 14:30N 30°04' W 093°34'3 6.3
2018-Jun-21 14:00N 30°04' W 093°30'3 6.4
2018-Jun-21 13:30N 30°04' W 093°27'3 6.3
2018-Jun-21 13:00N 30°04' W 093°23'2 4.7
2018-Jun-21 12:30N 30°04' W 093°20'2 4.6
2018-Jun-21 12:00N 30°06' W 093°18'1 1.8
2018-Jun-21 11:30N 30°05' W 093°17'1 2.9
2018-Jun-21 11:00N 30°04' W 093°16'1 1.3
2018-Jun-21 10:30N 30°04' W 093°16'1 1.8
2018-Jun-21 10:00N 30°03' W 093°16'0 0.1
2018-Jun-21 09:30N 30°03' W 093°16'0 0.0
2018-Jun-21 09:00N 30°03' W 093°16'0 0.0
2018-Jun-21 08:30N 30°03' W 093°16'0 0.0
2018-Jun-21 08:00N 30°03' W 093°16'0 0.0
2018-Jun-21 07:30N 30°03' W 093°16'0 0.0
2018-Jun-21 07:00N 30°03' W 093°16'0 0.0
2018-Jun-21 06:30N 30°03' W 093°16'0 0.1
2018-Jun-21 06:00N 30°03' W 093°16'1 1.1
2018-Jun-21 05:30N 30°02' W 093°15'2 3.2
2018-Jun-21 05:00N 30°01' W 093°14'2 4.7
2018-Jun-21 04:30N 29°59' W 093°13'2 3.5
2018-Jun-21 04:00N 29°58' W 093°11'2 3.6
2018-Jun-21 03:29N 29°56' W 093°10'3 5.2
2018-Jun-21 03:00N 29°56' W 093°07'37 6.3
2018-Jun-20 21:10N 29°53' W 092°25'1 6.5
2018-Jun-20 20:58N 29°53' W 092°23'3 6.2
2018-Jun-20 20:30N 29°51' W 092°21'2 4.8
2018-Jun-20 20:00N 29°50' W 092°19'3 6.0
2018-Jun-20 19:30N 29°48' W 092°16'3 6.4
2018-Jun-20 19:00N 29°47' W 092°13'1 1.6
2018-Jun-20 18:30N 29°47' W 092°12'0 0.0
2018-Jun-20 17:59N 29°47' W 092°12'0 0.1
2018-Jun-20 17:30N 29°47' W 092°12'1 1.8
2018-Jun-20 17:00N 29°47' W 092°11'1 1.2
2018-Jun-20 16:30N 29°47' W 092°10'1 1.7
2018-Jun-20 16:00N 29°47' W 092°09'0 0.1
2018-Jun-20 15:30N 29°47' W 092°09'0 0.0
2018-Jun-20 15:00N 29°47' W 092°09'0 0.0
2018-Jun-20 14:30N 29°47' W 092°09'0 0.0
2018-Jun-20 14:00N 29°47' W 092°09'0 0.0
2018-Jun-20 13:30N 29°47' W 092°09'0 0.0
2018-Jun-20 13:00N 29°47' W 092°09'0 0.0
2018-Jun-20 12:30N 29°47' W 092°09'0 0.0
2018-Jun-20 12:00N 29°47' W 092°09'0 0.0
2018-Jun-20 11:30N 29°47' W 092°09'2 4.1
2018-Jun-20 11:00N 29°48' W 092°07'0 1.0
2018-Jun-20 10:30N 29°48' W 092°06'0 0.0
2018-Jun-20 10:00N 29°48' W 092°06'0 0.0
2018-Jun-20 09:30N 29°48' W 092°06'0 0.0
2018-Jun-20 09:00N 29°48' W 092°06'0 0.0
2018-Jun-20 08:30N 29°48' W 092°06'0 0.0
2018-Jun-20 08:00N 29°48' W 092°06'0 0.8
2018-Jun-20 07:30N 29°48' W 092°06'1 2.5
2018-Jun-20 07:00N 29°48' W 092°05'0 0.0
2018-Jun-20 06:30N 29°48' W 092°05'0 0.0
2018-Jun-20 06:00N 29°48' W 092°05'0 0.0
2018-Jun-20 05:30N 29°48' W 092°05'0 0.0
2018-Jun-20 05:00N 29°48' W 092°05'0 0.0
2018-Jun-20 04:30N 29°48' W 092°05'0 0.0
2018-Jun-20 04:00N 29°48' W 092°05'0 0.1
2018-Jun-20 03:30N 29°48' W 092°05'3 5.4
2018-Jun-20 03:00N 29°49' W 092°02'3 6.8
2018-Jun-20 02:30N 29°50' W 091°58'  
2018-Jun-17 05:26N 29°51' W 091°56'2 5.4
2018-Jun-17 05:00N 29°50' W 091°59'2 4.8
2018-Jun-17 04:30N 29°49' W 092°01'2 4.3
2018-Jun-17 04:00N 29°49' W 092°04'3 5.9
2018-Jun-17 03:30N 29°48' W 092°07'3 5.3
2018-Jun-17 03:00N 29°47' W 092°10'2 4.1
2018-Jun-17 02:30N 29°47' W 092°12'1 1.2
2018-Jun-17 02:00N 29°47' W 092°13'1 1.4
2018-Jun-17 01:30N 29°48' W 092°13'0 0.0
2018-Jun-17 01:00N 29°48' W 092°13'0 0.0
2018-Jun-17 00:30N 29°48' W 092°13'0 0.6
2018-Jun-17 00:00N 29°48' W 092°14'1 1.2
2018-Jun-16 23:30N 29°48' W 092°14'0 0.0
2018-Jun-16 22:52N 29°48' W 092°14'1 2.0
2018-Jun-16 22:30N 29°48' W 092°15'2 4.8
2018-Jun-16 22:00N 29°49' W 092°18'2 3.6
2018-Jun-16 21:30N 29°50' W 092°19'2 4.2
2018-Jun-16 21:00N 29°51' W 092°22'35 4.4
2018-Jun-16 13:08N 29°56' W 093°01'1 4.1
2018-Jun-16 13:00N 29°56' W 093°02'2 3.7
2018-Jun-16 12:30N 29°56' W 093°04'2 4.0
2018-Jun-16 12:00N 29°56' W 093°06'2 4.4
2018-Jun-16 11:30N 29°56' W 093°09'2 3.9
2018-Jun-16 11:00N 29°57' W 093°11'2 4.1
2018-Jun-16 10:30N 29°59' W 093°12'2 4.0
2018-Jun-16 10:00N 30°00' W 093°14'2 3.7
2018-Jun-16 09:30N 30°02' W 093°15'2 3.0
2018-Jun-16 09:00N 30°03' W 093°16'2 3.1
2018-Jun-16 08:30N 30°05' W 093°17'1 2.5
2018-Jun-16 08:00N 30°05' W 093°18'1 1.2
2018-Jun-16 07:30N 30°06' W 093°18'0 1.0
2018-Jun-16 07:00N 30°06' W 093°19'0 0.6
2018-Jun-16 06:30N 30°06' W 093°19'0 0.1
2018-Jun-16 06:00N 30°06' W 093°19'0 0.0
2018-Jun-16 05:30N 30°06' W 093°19'0 0.0
2018-Jun-16 05:00N 30°06' W 093°19'0 0.1
2018-Jun-16 04:30N 30°06' W 093°19'0 0.0
2018-Jun-16 04:00N 30°06' W 093°19'0 0.0
2018-Jun-16 03:30N 30°06' W 093°19'0 0.1
2018-Jun-16 03:00N 30°06' W 093°19'0 0.0
2018-Jun-16 02:30N 30°06' W 093°19'0 0.0
2018-Jun-16 02:00N 30°06' W 093°19'0 0.0
2018-Jun-16 01:30N 30°06' W 093°19'0 0.0
2018-Jun-16 01:00N 30°06' W 093°19'0 0.0
2018-Jun-16 00:30N 30°06' W 093°19'0 0.0
2018-Jun-16 00:00N 30°06' W 093°19'0 0.1
2018-Jun-15 23:30N 30°06' W 093°19'0 0.0
2018-Jun-15 23:00N 30°06' W 093°19'0 0.0
2018-Jun-15 22:30N 30°06' W 093°19'0 0.0
2018-Jun-15 22:00N 30°06' W 093°19'0 0.1
2018-Jun-15 21:30N 30°06' W 093°19'0 0.0
2018-Jun-15 21:00N 30°06' W 093°19'0 0.0
2018-Jun-15 20:30N 30°06' W 093°19'0 0.0
2018-Jun-15 20:00N 30°06' W 093°19'0 0.0
2018-Jun-15 19:30N 30°06' W 093°19'0 0.1
2018-Jun-15 19:00N 30°06' W 093°19'0 0.0
2018-Jun-15 18:30N 30°06' W 093°19'0 0.0
2018-Jun-15 17:59N 30°06' W 093°19'0 0.0
2018-Jun-15 17:30N 30°06' W 093°19'0 0.0
2018-Jun-15 17:00N 30°06' W 093°19'0 0.0
2018-Jun-15 16:30N 30°06' W 093°19'0 0.0
2018-Jun-15 16:00N 30°06' W 093°19'0 0.0
2018-Jun-15 15:30N 30°06' W 093°19'0 0.0
2018-Jun-15 15:00N 30°06' W 093°19'0 0.0
2018-Jun-15 14:30N 30°06' W 093°19'0 0.0
2018-Jun-15 14:00N 30°06' W 093°19'0 0.0
2018-Jun-15 13:30N 30°06' W 093°19'0 0.0
2018-Jun-15 12:59N 30°06' W 093°19'0 0.9
2018-Jun-15 12:30N 30°06' W 093°19'2 4.3
2018-Jun-15 12:00N 30°04' W 093°21'2 3.4
2018-Jun-15 11:30N 30°04' W 093°23'2 4.8
2018-Jun-15 11:00N 30°04' W 093°25'3 5.0
2018-Jun-15 10:30N 30°04' W 093°28'2 5.0
2018-Jun-15 10:00N 30°04' W 093°31'2 4.9
2018-Jun-15 09:30N 30°04' W 093°34'2 4.8
2018-Jun-15 09:00N 30°03' W 093°37'2 3.8
2018-Jun-15 08:30N 30°04' W 093°39'3 4.9
2018-Jun-15 08:00N 30°03' W 093°42'2 4.2
2018-Jun-15 07:30N 30°03' W 093°44'3 5.4
2018-Jun-15 07:00N 30°00' W 093°46'3 5.7
2018-Jun-15 06:30N 29°59' W 093°49'2 4.7
2018-Jun-15 06:00N 29°58' W 093°51'4 7.3
2018-Jun-15 05:30N 29°59' W 093°55'3 5.2
2018-Jun-15 05:00N 30°01' W 093°58'0 0.8
2018-Jun-15 04:31N 30°01' W 093°58'0 0.1
2018-Jun-15 04:01N 30°01' W 093°58'0 0.0
2018-Jun-15 03:30N 30°01' W 093°58'0 0.0
2018-Jun-15 03:00N 30°01' W 093°58'0 0.0
2018-Jun-15 02:29N 30°01' W 093°58'0 0.0
2018-Jun-15 01:58N 30°01' W 093°58'0 0.0
2018-Jun-15 01:28N 30°01' W 093°58'0 0.0
2018-Jun-15 01:00N 30°01' W 093°58'0 0.0
2018-Jun-15 00:29N 30°01' W 093°58'0 0.0
2018-Jun-14 23:59N 30°01' W 093°58'0 0.0
2018-Jun-14 23:26N 30°01' W 093°58'0 0.0
2018-Jun-14 23:00N 30°01' W 093°58'0 0.0
2018-Jun-14 22:30N 30°01' W 093°58'0 0.0
2018-Jun-14 22:00N 30°01' W 093°58'  
Track history (hours):
 
Tides and Currents Weather Stations Pressure Air Temp Water Temp Dewpoint Dewpoint Depression Visibility Wind Speed Wind Dir Waves Ship Positions

Inez Cenac

Owner: Cenac Marine Services, Houma, LA. More information available from US FCC via Universal Licensing System and Coast Guard Vessel Documentation Center.

Last reported at 2018-Jun-24 21:50 UTC. Time now 2018-Jun-25 14:17 UTC.
Position N 29°51' W 091°57'.

Length 22 m; draft 2.4 m.

Type: Tug. MMSI: 367679030.

Date/timePositionNaut miles runAvg speedWind from/ knotsBaromVisibWave heightAir tempDewpointWater temp
2018-Jun-24 21:50N 29°51' W 091°57'2 4.9
2018-Jun-24 21:30N 29°50' W 091°58'2 4.8
2018-Jun-24 21:00N 29°49' W 092°01'2 4.7
2018-Jun-24 20:30N 29°49' W 092°04'2 4.8
2018-Jun-24 20:00N 29°48' W 092°06'3 5.0
2018-Jun-24 19:30N 29°47' W 092°09'2 4.2
2018-Jun-24 19:00N 29°47' W 092°11'1 2.1
2018-Jun-24 18:30N 29°47' W 092°12'0 0.5
2018-Jun-24 18:00N 29°47' W 092°13'1 1.5
2018-Jun-24 17:30N 29°48' W 092°13'1 1.1
2018-Jun-24 17:00N 29°48' W 092°14'1 1.5
2018-Jun-24 16:30N 29°48' W 092°15'0 0.6
2018-Jun-24 16:00N 29°48' W 092°15'0 0.2
2018-Jun-24 15:30N 29°48' W 092°15'0 0.0
2018-Jun-24 14:59N 29°48' W 092°15'0 0.0
2018-Jun-24 14:30N 29°48' W 092°15'0 0.0
2018-Jun-24 13:59N 29°48' W 092°15'0 0.0
2018-Jun-24 13:30N 29°48' W 092°15'0 0.9
2018-Jun-24 13:00N 29°48' W 092°16'1 1.5
2018-Jun-24 12:30N 29°49' W 092°16'0 0.9
2018-Jun-24 12:00N 29°49' W 092°17'1 3.0
2018-Jun-24 11:30N 29°50' W 092°18'2 3.7
2018-Jun-24 11:00N 29°51' W 092°20'3 4.2
2018-Jun-24 10:22N 29°52' W 092°22'28 4.5
2018-Jun-24 04:09N 29°56' W 092°55'1 4.2
2018-Jun-24 03:51N 29°56' W 092°56'5 4.2
2018-Jun-24 02:45N 29°56' W 093°01'1 4.4
2018-Jun-24 02:29N 29°56' W 093°03'2 3.8
2018-Jun-24 01:59N 29°56' W 093°05'2 3.8
2018-Jun-24 01:30N 29°56' W 093°07'1 2.4
2018-Jun-24 01:00N 29°56' W 093°08'2 3.2
2018-Jun-24 00:30N 29°57' W 093°10'1 2.3
2018-Jun-24 00:00N 29°58' W 093°11'1 2.6
2018-Jun-23 23:30N 29°59' W 093°12'2 3.1
2018-Jun-23 23:00N 29°60' W 093°13'2 3.6
2018-Jun-23 22:30N 30°01' W 093°14'2 3.4
2018-Jun-23 22:00N 30°02' W 093°15'2 3.3
2018-Jun-23 21:30N 30°04' W 093°16'2 3.6
2018-Jun-23 21:00N 30°05' W 093°17'0 0.8
2018-Jun-23 20:30N 30°05' W 093°18'0 0.9
2018-Jun-23 20:00N 30°06' W 093°18'0 0.7
2018-Jun-23 19:30N 30°06' W 093°18'0 0.0
2018-Jun-23 19:00N 30°06' W 093°18'0 0.0
2018-Jun-23 18:30N 30°06' W 093°18'0 0.0
2018-Jun-23 18:00N 30°06' W 093°18'0 0.0
2018-Jun-23 17:30N 30°06' W 093°18'0 0.0
2018-Jun-23 17:00N 30°06' W 093°18'0 0.0
2018-Jun-23 16:30N 30°06' W 093°18'0 0.1
2018-Jun-23 16:00N 30°06' W 093°18'0 0.1
2018-Jun-23 15:30N 30°06' W 093°18'0 0.0
2018-Jun-23 15:00N 30°06' W 093°18'0 0.1
2018-Jun-23 14:30N 30°06' W 093°18'0 0.0
2018-Jun-23 14:00N 30°06' W 093°18'0 0.0
2018-Jun-23 13:30N 30°06' W 093°18'0 0.0
2018-Jun-23 13:00N 30°06' W 093°18'0 0.0
2018-Jun-23 12:30N 30°06' W 093°18'0 0.1
2018-Jun-23 12:00N 30°06' W 093°18'0 0.0
2018-Jun-23 11:30N 30°06' W 093°18'0 0.0
2018-Jun-23 11:00N 30°06' W 093°18'0 0.1
2018-Jun-23 10:30N 30°06' W 093°18'0 0.0
2018-Jun-23 10:00N 30°06' W 093°18'0 0.0
2018-Jun-23 09:30N 30°06' W 093°18'0 0.0
2018-Jun-23 09:00N 30°06' W 093°18'0 0.0
2018-Jun-23 08:30N 30°06' W 093°18'0 0.0
2018-Jun-23 08:00N 30°06' W 093°18'0 0.0
2018-Jun-23 07:30N 30°06' W 093°18'0 0.1
2018-Jun-23 07:00N 30°06' W 093°18'0 0.0
2018-Jun-23 06:30N 30°06' W 093°18'0 0.0
2018-Jun-23 06:00N 30°06' W 093°18'0 0.0
2018-Jun-23 05:30N 30°06' W 093°18'0 0.0
2018-Jun-23 05:00N 30°06' W 093°18'0 0.0
2018-Jun-23 04:30N 30°06' W 093°18'0 0.1
2018-Jun-23 04:00N 30°06' W 093°18'0 0.3
2018-Jun-23 03:30N 30°06' W 093°18'1 2.1
2018-Jun-23 03:00N 30°06' W 093°19'2 3.2
2018-Jun-23 02:30N 30°04' W 093°21'2 3.6
2018-Jun-23 02:00N 30°04' W 093°23'1 2.9
2018-Jun-23 01:30N 30°04' W 093°24'1 2.3
2018-Jun-23 01:00N 30°04' W 093°25'2 3.7
2018-Jun-23 00:30N 30°04' W 093°28'3 5.5
2018-Jun-23 00:00N 30°04' W 093°31'3 5.5
2018-Jun-22 23:29N 30°04' W 093°34'3 5.5
2018-Jun-22 22:59N 30°04' W 093°37'3 5.8
2018-Jun-22 22:30N 30°04' W 093°41'3 5.2
2018-Jun-22 22:00N 30°03' W 093°44'3 5.9
2018-Jun-22 21:30N 30°01' W 093°46'3 5.9
2018-Jun-22 21:00N 29°59' W 093°48'3 5.3
2018-Jun-22 20:30N 29°58' W 093°51'3 5.1
2018-Jun-22 20:00N 29°59' W 093°54'3 6.0
2018-Jun-22 19:30N 30°00' W 093°57'2 3.3
2018-Jun-22 19:00N 30°01' W 093°59'0 0.0
2018-Jun-22 18:30N 30°01' W 093°59'0 0.0
2018-Jun-22 18:00N 30°01' W 093°59'0 0.0
2018-Jun-22 17:30N 30°01' W 093°59'0 0.0
2018-Jun-22 16:57N 30°01' W 093°59'0 0.0
2018-Jun-22 16:30N 30°01' W 093°59'0 0.4
2018-Jun-22 16:00N 30°01' W 093°59'0 0.6
2018-Jun-22 15:30N 30°01' W 093°59'0 0.0
2018-Jun-22 15:00N 30°01' W 093°59'0 0.0
2018-Jun-22 14:30N 30°01' W 093°59'0 0.0
2018-Jun-22 14:00N 30°01' W 093°59'0 0.0
2018-Jun-22 13:30N 30°01' W 093°59'0 0.0
2018-Jun-22 13:00N 30°01' W 093°59'0 0.0
2018-Jun-22 12:30N 30°01' W 093°59'0 0.0
2018-Jun-22 12:00N 30°01' W 093°59'0 0.0
2018-Jun-22 11:30N 30°01' W 093°59'0 0.0
2018-Jun-22 11:00N 30°01' W 093°59'0 0.0
2018-Jun-22 10:30N 30°01' W 093°59'0 0.0
2018-Jun-22 10:00N 30°01' W 093°59'0 0.0
2018-Jun-22 09:30N 30°01' W 093°59'0 0.0
2018-Jun-22 09:00N 30°01' W 093°59'0 0.0
2018-Jun-22 08:30N 30°01' W 093°59'0 0.0
2018-Jun-22 08:00N 30°01' W 093°59'0 0.0
2018-Jun-22 07:30N 30°01' W 093°59'0 0.0
2018-Jun-22 07:00N 30°01' W 093°59'0 0.0
2018-Jun-22 06:30N 30°01' W 093°59'0 0.0
2018-Jun-22 06:00N 30°01' W 093°59'0 0.0
2018-Jun-22 05:30N 30°01' W 093°59'0 0.0
2018-Jun-22 05:00N 30°01' W 093°59'0 0.0
2018-Jun-22 04:30N 30°01' W 093°59'0 0.0
2018-Jun-22 04:00N 30°01' W 093°59'0 0.0
2018-Jun-22 03:30N 30°01' W 093°59'0 0.0
2018-Jun-22 03:00N 30°01' W 093°59'0 0.0
2018-Jun-22 02:30N 30°01' W 093°59'0 0.0
2018-Jun-22 02:00N 30°01' W 093°59'0 0.0
2018-Jun-22 01:30N 30°01' W 093°59'0 0.0
2018-Jun-22 01:00N 30°01' W 093°59'0 0.0
2018-Jun-22 00:30N 30°01' W 093°59'0 0.0
2018-Jun-22 00:00N 30°01' W 093°59'0 0.0
2018-Jun-21 23:30N 30°01' W 093°59'0 0.0
2018-Jun-21 23:00N 30°01' W 093°59'0 0.0
2018-Jun-21 22:30N 30°01' W 093°59'0 0.0
2018-Jun-21 22:00N 30°01' W 093°59'0 0.0
2018-Jun-21 21:30N 30°01' W 093°59'0 0.0
2018-Jun-21 21:00N 30°01' W 093°59'0 0.0
2018-Jun-21 20:30N 30°01' W 093°59'0 0.0
2018-Jun-21 20:00N 30°01' W 093°59'0 0.0
2018-Jun-21 19:30N 30°01' W 093°59'0 0.0
2018-Jun-21 19:00N 30°01' W 093°59'0 0.1
2018-Jun-21 18:30N 30°01' W 093°59'0 0.3
2018-Jun-21 18:00N 30°01' W 093°59'2 4.0
2018-Jun-21 17:30N 29°60' W 093°57'4 8.4
2018-Jun-21 17:00N 29°59' W 093°52'3 6.2
2018-Jun-21 16:30N 29°59' W 093°49'4 8.3
2018-Jun-21 16:00N 30°01' W 093°45'3 6.7
2018-Jun-21 15:30N 30°04' W 093°42'4 7.1
2018-Jun-21 15:00N 30°04' W 093°38'3 6.4
2018-Jun-21 14:30N 30°04' W 093°34'3 6.3
2018-Jun-21 14:00N 30°04' W 093°30'3 6.4
2018-Jun-21 13:30N 30°04' W 093°27'3 6.3
2018-Jun-21 13:00N 30°04' W 093°23'2 4.7
2018-Jun-21 12:30N 30°04' W 093°20'2 4.6
2018-Jun-21 12:00N 30°06' W 093°18'1 1.8
2018-Jun-21 11:30N 30°05' W 093°17'1 2.9
2018-Jun-21 11:00N 30°04' W 093°16'1 1.3
2018-Jun-21 10:30N 30°04' W 093°16'1 1.8
2018-Jun-21 10:00N 30°03' W 093°16'0 0.1
2018-Jun-21 09:30N 30°03' W 093°16'0 0.0
2018-Jun-21 09:00N 30°03' W 093°16'0 0.0
2018-Jun-21 08:30N 30°03' W 093°16'0 0.0
2018-Jun-21 08:00N 30°03' W 093°16'0 0.0
2018-Jun-21 07:30N 30°03' W 093°16'0 0.0
2018-Jun-21 07:00N 30°03' W 093°16'0 0.0
2018-Jun-21 06:30N 30°03' W 093°16'0 0.1
2018-Jun-21 06:00N 30°03' W 093°16'1 1.1
2018-Jun-21 05:30N 30°02' W 093°15'2 3.2
2018-Jun-21 05:00N 30°01' W 093°14'2 4.7
2018-Jun-21 04:30N 29°59' W 093°13'2 3.5
2018-Jun-21 04:00N 29°58' W 093°11'2 3.6
2018-Jun-21 03:29N 29°56' W 093°10'3 5.2
2018-Jun-21 03:00N 29°56' W 093°07'37 6.3
2018-Jun-20 21:10N 29°53' W 092°25'1 6.5
2018-Jun-20 20:58N 29°53' W 092°23'3 6.2
2018-Jun-20 20:30N 29°51' W 092°21'2 4.8
2018-Jun-20 20:00N 29°50' W 092°19'3 6.0
2018-Jun-20 19:30N 29°48' W 092°16'3 6.4
2018-Jun-20 19:00N 29°47' W 092°13'1 1.6
2018-Jun-20 18:30N 29°47' W 092°12'0 0.0
2018-Jun-20 17:59N 29°47' W 092°12'0 0.1
2018-Jun-20 17:30N 29°47' W 092°12'1 1.8
2018-Jun-20 17:00N 29°47' W 092°11'1 1.2
2018-Jun-20 16:30N 29°47' W 092°10'1 1.7
2018-Jun-20 16:00N 29°47' W 092°09'0 0.1
2018-Jun-20 15:30N 29°47' W 092°09'0 0.0
2018-Jun-20 15:00N 29°47' W 092°09'0 0.0
2018-Jun-20 14:30N 29°47' W 092°09'0 0.0
2018-Jun-20 14:00N 29°47' W 092°09'0 0.0
2018-Jun-20 13:30N 29°47' W 092°09'0 0.0
2018-Jun-20 13:00N 29°47' W 092°09'0 0.0
2018-Jun-20 12:30N 29°47' W 092°09'0 0.0
2018-Jun-20 12:00N 29°47' W 092°09'0 0.0
2018-Jun-20 11:30N 29°47' W 092°09'2 4.1
2018-Jun-20 11:00N 29°48' W 092°07'0 1.0
2018-Jun-20 10:30N 29°48' W 092°06'0 0.0
2018-Jun-20 10:00N 29°48' W 092°06'0 0.0
2018-Jun-20 09:30N 29°48' W 092°06'0 0.0
2018-Jun-20 09:00N 29°48' W 092°06'0 0.0
2018-Jun-20 08:30N 29°48' W 092°06'0 0.0
2018-Jun-20 08:00N 29°48' W 092°06'0 0.8
2018-Jun-20 07:30N 29°48' W 092°06'1 2.5
2018-Jun-20 07:00N 29°48' W 092°05'0 0.0
2018-Jun-20 06:30N 29°48' W 092°05'0 0.0
2018-Jun-20 06:00N 29°48' W 092°05'0 0.0
2018-Jun-20 05:30N 29°48' W 092°05'0 0.0
2018-Jun-20 05:00N 29°48' W 092°05'0 0.0
2018-Jun-20 04:30N 29°48' W 092°05'0 0.0
2018-Jun-20 04:00N 29°48' W 092°05'0 0.1
2018-Jun-20 03:30N 29°48' W 092°05'3 5.4
2018-Jun-20 03:00N 29°49' W 092°02'3 6.8
2018-Jun-20 02:30N 29°50' W 091°58'  
2018-Jun-17 05:26N 29°51' W 091°56'2 5.4
2018-Jun-17 05:00N 29°50' W 091°59'2 4.8
2018-Jun-17 04:30N 29°49' W 092°01'2 4.3
2018-Jun-17 04:00N 29°49' W 092°04'3 5.9
2018-Jun-17 03:30N 29°48' W 092°07'3 5.3
2018-Jun-17 03:00N 29°47' W 092°10'2 4.1
2018-Jun-17 02:30N 29°47' W 092°12'1 1.2
2018-Jun-17 02:00N 29°47' W 092°13'1 1.4
2018-Jun-17 01:30N 29°48' W 092°13'0 0.0
2018-Jun-17 01:00N 29°48' W 092°13'0 0.0
2018-Jun-17 00:30N 29°48' W 092°13'0 0.6
2018-Jun-17 00:00N 29°48' W 092°14'1 1.2
2018-Jun-16 23:30N 29°48' W 092°14'0 0.0
2018-Jun-16 22:52N 29°48' W 092°14'1 2.0
2018-Jun-16 22:30N 29°48' W 092°15'2 4.8
2018-Jun-16 22:00N 29°49' W 092°18'2 3.6
2018-Jun-16 21:30N 29°50' W 092°19'2 4.2
2018-Jun-16 21:00N 29°51' W 092°22'35 4.4
2018-Jun-16 13:08N 29°56' W 093°01'1 4.1
2018-Jun-16 13:00N 29°56' W 093°02'2 3.7
2018-Jun-16 12:30N 29°56' W 093°04'2 4.0
2018-Jun-16 12:00N 29°56' W 093°06'2 4.4
2018-Jun-16 11:30N 29°56' W 093°09'2 3.9
2018-Jun-16 11:00N 29°57' W 093°11'2 4.1
2018-Jun-16 10:30N 29°59' W 093°12'2 4.0
2018-Jun-16 10:00N 30°00' W 093°14'2 3.7
2018-Jun-16 09:30N 30°02' W 093°15'2 3.0
2018-Jun-16 09:00N 30°03' W 093°16'2 3.1
2018-Jun-16 08:30N 30°05' W 093°17'1 2.5
2018-Jun-16 08:00N 30°05' W 093°18'1 1.2
2018-Jun-16 07:30N 30°06' W 093°18'0 1.0
2018-Jun-16 07:00N 30°06' W 093°19'0 0.6
2018-Jun-16 06:30N 30°06' W 093°19'0 0.1
2018-Jun-16 06:00N 30°06' W 093°19'0 0.0
2018-Jun-16 05:30N 30°06' W 093°19'0 0.0
2018-Jun-16 05:00N 30°06' W 093°19'0 0.1
2018-Jun-16 04:30N 30°06' W 093°19'0 0.0
2018-Jun-16 04:00N 30°06' W 093°19'0 0.0
2018-Jun-16 03:30N 30°06' W 093°19'0 0.1
2018-Jun-16 03:00N 30°06' W 093°19'0 0.0
2018-Jun-16 02:30N 30°06' W 093°19'0 0.0
2018-Jun-16 02:00N 30°06' W 093°19'0 0.0
2018-Jun-16 01:30N 30°06' W 093°19'0 0.0
2018-Jun-16 01:00N 30°06' W 093°19'0 0.0
2018-Jun-16 00:30N 30°06' W 093°19'0 0.0
2018-Jun-16 00:00N 30°06' W 093°19'0 0.1
2018-Jun-15 23:30N 30°06' W 093°19'0 0.0
2018-Jun-15 23:00N 30°06' W 093°19'0 0.0
2018-Jun-15 22:30N 30°06' W 093°19'0 0.0
2018-Jun-15 22:00N 30°06' W 093°19'0 0.1
2018-Jun-15 21:30N 30°06' W 093°19'0 0.0
2018-Jun-15 21:00N 30°06' W 093°19'0 0.0
2018-Jun-15 20:30N 30°06' W 093°19'0 0.0
2018-Jun-15 20:00N 30°06' W 093°19'0 0.0
2018-Jun-15 19:30N 30°06' W 093°19'0 0.1
2018-Jun-15 19:00N 30°06' W 093°19'0 0.0
2018-Jun-15 18:30N 30°06' W 093°19'0 0.0
2018-Jun-15 17:59N 30°06' W 093°19'0 0.0
2018-Jun-15 17:30N 30°06' W 093°19'0 0.0
2018-Jun-15 17:00N 30°06' W 093°19'0 0.0
2018-Jun-15 16:30N 30°06' W 093°19'0 0.0
2018-Jun-15 16:00N 30°06' W 093°19'0 0.0
2018-Jun-15 15:30N 30°06' W 093°19'0 0.0
2018-Jun-15 15:00N 30°06' W 093°19'0 0.0
2018-Jun-15 14:30N 30°06' W 093°19'0 0.0
2018-Jun-15 14:00N 30°06' W 093°19'0 0.0
2018-Jun-15 13:30N 30°06' W 093°19'0 0.0
2018-Jun-15 12:59N 30°06' W 093°19'0 0.9
2018-Jun-15 12:30N 30°06' W 093°19'2 4.3
2018-Jun-15 12:00N 30°04' W 093°21'2 3.4
2018-Jun-15 11:30N 30°04' W 093°23'2 4.8
2018-Jun-15 11:00N 30°04' W 093°25'3 5.0
2018-Jun-15 10:30N 30°04' W 093°28'2 5.0
2018-Jun-15 10:00N 30°04' W 093°31'2 4.9
2018-Jun-15 09:30N 30°04' W 093°34'2 4.8
2018-Jun-15 09:00N 30°03' W 093°37'2 3.8
2018-Jun-15 08:30N 30°04' W 093°39'3 4.9
2018-Jun-15 08:00N 30°03' W 093°42'2 4.2
2018-Jun-15 07:30N 30°03' W 093°44'3 5.4
2018-Jun-15 07:00N 30°00' W 093°46'3 5.7
2018-Jun-15 06:30N 29°59' W 093°49'2 4.7
2018-Jun-15 06:00N 29°58' W 093°51'4 7.3
2018-Jun-15 05:30N 29°59' W 093°55'3 5.2
2018-Jun-15 05:00N 30°01' W 093°58'0 0.8
2018-Jun-15 04:31N 30°01' W 093°58'0 0.1
2018-Jun-15 04:01N 30°01' W 093°58'0 0.0
2018-Jun-15 03:30N 30°01' W 093°58'0 0.0
2018-Jun-15 03:00N 30°01' W 093°58'0 0.0
2018-Jun-15 02:29N 30°01' W 093°58'0 0.0
2018-Jun-15 01:58N 30°01' W 093°58'0 0.0
2018-Jun-15 01:28N 30°01' W 093°58'0 0.0
2018-Jun-15 01:00N 30°01' W 093°58'0 0.0
2018-Jun-15 00:29N 30°01' W 093°58'0 0.0
2018-Jun-14 23:59N 30°01' W 093°58'0 0.0
2018-Jun-14 23:26N 30°01' W 093°58'0 0.0
2018-Jun-14 23:00N 30°01' W 093°58'0 0.0
2018-Jun-14 22:30N 30°01' W 093°58'0 0.0
2018-Jun-14 22:00N 30°01' W 093°58'  

Dump ship's entire track history